sensor_id;sensor_type;location;lat;lon;timestamp;P1;durP1;ratioP1;P2;durP2;ratioP2
71867;SDS011;59738;48.324;14.230;2022-11-06T00:00:35;16.65;;;8.27;;
71867;SDS011;59738;48.324;14.230;2022-11-06T00:03:02;17.10;;;9.20;;
71867;SDS011;59738;48.324;14.230;2022-11-06T00:05:32;23.42;;;9.40;;
71867;SDS011;59738;48.324;14.230;2022-11-06T00:08:24;15.35;;;8.80;;
71867;SDS011;59738;48.324;14.230;2022-11-06T00:10:53;16.45;;;9.13;;
71867;SDS011;59738;48.324;14.230;2022-11-06T00:13:21;17.80;;;8.88;;
71867;SDS011;59738;48.324;14.230;2022-11-06T00:15:48;15.13;;;8.83;;
71867;SDS011;59738;48.324;14.230;2022-11-06T00:18:15;16.90;;;9.38;;
71867;SDS011;59738;48.324;14.230;2022-11-06T00:20:44;15.38;;;8.82;;
71867;SDS011;59738;48.324;14.230;2022-11-06T00:23:12;16.00;;;8.60;;
71867;SDS011;59738;48.324;14.230;2022-11-06T00:25:40;16.48;;;8.57;;
71867;SDS011;59738;48.324;14.230;2022-11-06T00:28:08;17.10;;;8.37;;
71867;SDS011;59738;48.324;14.230;2022-11-06T00:30:35;20.55;;;8.65;;
71867;SDS011;59738;48.324;14.230;2022-11-06T00:33:03;14.60;;;8.13;;
71867;SDS011;59738;48.324;14.230;2022-11-06T00:35:30;15.43;;;7.88;;
71867;SDS011;59738;48.324;14.230;2022-11-06T00:37:59;14.30;;;7.60;;
71867;SDS011;59738;48.324;14.230;2022-11-06T00:40:27;14.80;;;7.53;;
71867;SDS011;59738;48.324;14.230;2022-11-06T00:42:55;16.05;;;7.38;;
71867;SDS011;59738;48.324;14.230;2022-11-06T00:45:23;14.68;;;6.82;;
71867;SDS011;59738;48.324;14.230;2022-11-06T00:47:51;14.32;;;7.72;;
71867;SDS011;59738;48.324;14.230;2022-11-06T00:50:18;13.40;;;6.93;;
71867;SDS011;59738;48.324;14.230;2022-11-06T00:52:46;11.73;;;6.80;;
71867;SDS011;59738;48.324;14.230;2022-11-06T00:55:15;13.43;;;7.05;;
71867;SDS011;59738;48.324;14.230;2022-11-06T00:57:42;11.25;;;6.18;;
71867;SDS011;59738;48.324;14.230;2022-11-06T01:00:10;13.48;;;7.53;;
71867;SDS011;59738;48.324;14.230;2022-11-06T01:02:38;12.20;;;7.28;;
71867;SDS011;59738;48.324;14.230;2022-11-06T01:05:06;15.10;;;7.20;;
71867;SDS011;59738;48.324;14.230;2022-11-06T01:07:34;13.93;;;7.10;;
71867;SDS011;59738;48.324;14.230;2022-11-06T01:10:02;12.48;;;7.05;;
71867;SDS011;59738;48.324;14.230;2022-11-06T01:12:31;13.13;;;7.20;;
71867;SDS011;59738;48.324;14.230;2022-11-06T01:14:58;13.43;;;6.65;;
71867;SDS011;59738;48.324;14.230;2022-11-06T01:17:26;13.17;;;7.30;;
71867;SDS011;59738;48.324;14.230;2022-11-06T01:19:54;14.60;;;7.53;;
71867;SDS011;59738;48.324;14.230;2022-11-06T01:22:21;13.05;;;6.72;;
71867;SDS011;59738;48.324;14.230;2022-11-06T01:24:49;12.27;;;6.63;;
71867;SDS011;59738;48.324;14.230;2022-11-06T01:27:16;14.13;;;6.50;;
71867;SDS011;59738;48.324;14.230;2022-11-06T01:29:45;15.77;;;6.63;;
71867;SDS011;59738;48.324;14.230;2022-11-06T01:32:12;14.90;;;7.28;;
71867;SDS011;59738;48.324;14.230;2022-11-06T01:34:40;13.95;;;7.22;;
71867;SDS011;59738;48.324;14.230;2022-11-06T01:37:07;14.23;;;6.80;;
71867;SDS011;59738;48.324;14.230;2022-11-06T01:39:35;12.63;;;6.28;;
71867;SDS011;59738;48.324;14.230;2022-11-06T01:42:02;12.10;;;6.57;;
71867;SDS011;59738;48.324;14.230;2022-11-06T01:47:34;16.75;;;7.45;;
71867;SDS011;59738;48.324;14.230;2022-11-06T01:50:02;11.60;;;6.35;;
71867;SDS011;59738;48.324;14.230;2022-11-06T01:52:33;15.52;;;8.55;;
71867;SDS011;59738;48.324;14.230;2022-11-06T01:55:03;10.40;;;5.93;;
71867;SDS011;59738;48.324;14.230;2022-11-06T01:57:35;13.00;;;6.13;;
71867;SDS011;59738;48.324;14.230;2022-11-06T02:00:03;11.77;;;5.95;;
71867;SDS011;59738;48.324;14.230;2022-11-06T02:02:33;10.85;;;5.78;;
71867;SDS011;59738;48.324;14.230;2022-11-06T02:05:00;13.60;;;6.15;;
71867;SDS011;59738;48.324;14.230;2022-11-06T02:07:28;12.90;;;6.30;;
71867;SDS011;59738;48.324;14.230;2022-11-06T02:09:55;11.68;;;6.30;;
71867;SDS011;59738;48.324;14.230;2022-11-06T02:12:27;192.75;;;11.52;;
71867;SDS011;59738;48.324;14.230;2022-11-06T02:15:07;26.73;;;6.68;;
71867;SDS011;59738;48.324;14.230;2022-11-06T02:17:45;12.20;;;6.50;;
71867;SDS011;59738;48.324;14.230;2022-11-06T02:20:22;13.43;;;7.07;;
71867;SDS011;59738;48.324;14.230;2022-11-06T02:23:00;12.52;;;6.93;;
71867;SDS011;59738;48.324;14.230;2022-11-06T02:25:45;12.48;;;6.63;;
71867;SDS011;59738;48.324;14.230;2022-11-06T02:28:19;14.50;;;7.32;;
71867;SDS011;59738;48.324;14.230;2022-11-06T02:30:49;15.73;;;7.32;;
71867;SDS011;59738;48.324;14.230;2022-11-06T02:33:18;12.57;;;6.20;;
71867;SDS011;59738;48.324;14.230;2022-11-06T02:35:50;11.10;;;6.32;;
71867;SDS011;59738;48.324;14.230;2022-11-06T02:38:20;11.20;;;6.38;;
71867;SDS011;59738;48.324;14.230;2022-11-06T02:40:51;12.10;;;6.15;;
71867;SDS011;59738;48.324;14.230;2022-11-06T02:43:22;12.60;;;6.72;;
71867;SDS011;59738;48.324;14.230;2022-11-06T02:45:54;11.40;;;6.10;;
71867;SDS011;59738;48.324;14.230;2022-11-06T02:48:25;12.38;;;5.95;;
71867;SDS011;59738;48.324;14.230;2022-11-06T02:50:57;12.25;;;6.07;;
71867;SDS011;59738;48.324;14.230;2022-11-06T02:53:26;10.73;;;6.38;;
71867;SDS011;59738;48.324;14.230;2022-11-06T02:55:56;10.80;;;5.65;;
71867;SDS011;59738;48.324;14.230;2022-11-06T02:58:27;11.70;;;6.03;;
71867;SDS011;59738;48.324;14.230;2022-11-06T03:00:57;9.40;;;5.53;;
71867;SDS011;59738;48.324;14.230;2022-11-06T03:03:29;11.48;;;5.90;;
71867;SDS011;59738;48.324;14.230;2022-11-06T03:05:59;11.77;;;5.97;;
71867;SDS011;59738;48.324;14.230;2022-11-06T03:08:29;14.98;;;6.22;;
71867;SDS011;59738;48.324;14.230;2022-11-06T03:11:03;12.10;;;6.03;;
71867;SDS011;59738;48.324;14.230;2022-11-06T03:13:38;11.40;;;6.07;;
71867;SDS011;59738;48.324;14.230;2022-11-06T03:16:12;12.35;;;6.60;;
71867;SDS011;59738;48.324;14.230;2022-11-06T03:18:50;11.98;;;6.20;;
71867;SDS011;59738;48.324;14.230;2022-11-06T03:21:22;12.57;;;6.90;;
71867;SDS011;59738;48.324;14.230;2022-11-06T03:23:51;12.50;;;6.73;;
71867;SDS011;59738;48.324;14.230;2022-11-06T03:26:21;13.63;;;6.88;;
71867;SDS011;59738;48.324;14.230;2022-11-06T03:28:53;11.65;;;6.18;;
71867;SDS011;59738;48.324;14.230;2022-11-06T03:31:24;12.38;;;6.10;;
71867;SDS011;59738;48.324;14.230;2022-11-06T03:33:56;17.65;;;6.63;;
71867;SDS011;59738;48.324;14.230;2022-11-06T03:36:25;15.07;;;6.83;;
71867;SDS011;59738;48.324;14.230;2022-11-06T03:38:57;11.57;;;6.32;;
71867;SDS011;59738;48.324;14.230;2022-11-06T03:41:27;15.70;;;7.25;;
71867;SDS011;59738;48.324;14.230;2022-11-06T03:43:58;13.25;;;7.03;;
71867;SDS011;59738;48.324;14.230;2022-11-06T03:46:27;14.57;;;7.35;;
71867;SDS011;59738;48.324;14.230;2022-11-06T03:48:56;17.50;;;6.87;;
71867;SDS011;59738;48.324;14.230;2022-11-06T03:51:27;11.77;;;6.53;;
71867;SDS011;59738;48.324;14.230;2022-11-06T03:53:58;12.25;;;6.75;;
71867;SDS011;59738;48.324;14.230;2022-11-06T03:56:29;12.73;;;6.90;;
71867;SDS011;59738;48.324;14.230;2022-11-06T03:59:03;14.77;;;7.38;;
71867;SDS011;59738;48.324;14.230;2022-11-06T04:01:33;15.00;;;7.13;;
71867;SDS011;59738;48.324;14.230;2022-11-06T04:04:03;14.50;;;8.00;;
71867;SDS011;59738;48.324;14.230;2022-11-06T04:06:34;18.02;;;8.15;;
71867;SDS011;59738;48.324;14.230;2022-11-06T04:09:04;15.85;;;7.80;;
71867;SDS011;59738;48.324;14.230;2022-11-06T04:12:03;16.38;;;9.13;;
71867;SDS011;59738;48.324;14.230;2022-11-06T04:14:51;16.13;;;8.30;;
71867;SDS011;59738;48.324;14.230;2022-11-06T04:17:20;14.75;;;7.80;;
71867;SDS011;59738;48.324;14.230;2022-11-06T04:19:51;14.73;;;7.68;;
71867;SDS011;59738;48.324;14.230;2022-11-06T04:22:21;13.98;;;8.18;;
71867;SDS011;59738;48.324;14.230;2022-11-06T04:25:05;17.00;;;7.55;;
71867;SDS011;59738;48.324;14.230;2022-11-06T04:28:04;14.17;;;7.50;;
71867;SDS011;59738;48.324;14.230;2022-11-06T04:30:42;12.57;;;7.40;;
71867;SDS011;59738;48.324;14.230;2022-11-06T04:33:13;15.05;;;7.25;;
71867;SDS011;59738;48.324;14.230;2022-11-06T04:35:48;14.57;;;6.93;;
71867;SDS011;59738;48.324;14.230;2022-11-06T04:38:22;19.15;;;8.60;;
71867;SDS011;59738;48.324;14.230;2022-11-06T04:40:59;17.77;;;8.93;;
71867;SDS011;59738;48.324;14.230;2022-11-06T04:43:35;12.93;;;6.85;;
71867;SDS011;59738;48.324;14.230;2022-11-06T04:46:09;13.57;;;6.50;;
71867;SDS011;59738;48.324;14.230;2022-11-06T04:48:39;15.25;;;7.13;;
71867;SDS011;59738;48.324;14.230;2022-11-06T04:51:08;12.00;;;6.70;;
71867;SDS011;59738;48.324;14.230;2022-11-06T04:53:36;14.37;;;7.33;;
71867;SDS011;59738;48.324;14.230;2022-11-06T04:56:05;14.20;;;6.93;;
71867;SDS011;59738;48.324;14.230;2022-11-06T04:58:35;17.92;;;7.13;;
71867;SDS011;59738;48.324;14.230;2022-11-06T05:01:03;10.15;;;5.70;;
71867;SDS011;59738;48.324;14.230;2022-11-06T05:03:32;10.82;;;6.10;;
71867;SDS011;59738;48.324;14.230;2022-11-06T05:05:59;13.53;;;6.10;;
71867;SDS011;59738;48.324;14.230;2022-11-06T05:08:27;11.38;;;6.60;;
71867;SDS011;59738;48.324;14.230;2022-11-06T05:10:54;13.80;;;6.35;;
71867;SDS011;59738;48.324;14.230;2022-11-06T05:13:22;13.25;;;6.43;;
71867;SDS011;59738;48.324;14.230;2022-11-06T05:15:53;10.30;;;5.95;;
71867;SDS011;59738;48.324;14.230;2022-11-06T05:18:21;10.57;;;6.00;;
71867;SDS011;59738;48.324;14.230;2022-11-06T05:20:50;14.05;;;6.95;;
71867;SDS011;59738;48.324;14.230;2022-11-06T05:23:37;14.60;;;7.63;;
71867;SDS011;59738;48.324;14.230;2022-11-06T05:26:04;11.15;;;6.55;;
71867;SDS011;59738;48.324;14.230;2022-11-06T05:28:32;14.75;;;7.47;;
71867;SDS011;59738;48.324;14.230;2022-11-06T05:30:59;16.90;;;9.50;;
71867;SDS011;59738;48.324;14.230;2022-11-06T05:33:27;15.43;;;7.45;;
71867;SDS011;59738;48.324;14.230;2022-11-06T05:35:56;13.93;;;7.65;;
71867;SDS011;59738;48.324;14.230;2022-11-06T05:38:27;15.88;;;7.32;;
71867;SDS011;59738;48.324;14.230;2022-11-06T05:40:55;14.93;;;7.30;;
71867;SDS011;59738;48.324;14.230;2022-11-06T05:43:22;15.07;;;7.97;;
71867;SDS011;59738;48.324;14.230;2022-11-06T05:45:50;22.65;;;10.73;;
71867;SDS011;59738;48.324;14.230;2022-11-06T05:48:17;22.65;;;10.23;;
71867;SDS011;59738;48.324;14.230;2022-11-06T05:50:45;18.83;;;9.52;;
71867;SDS011;59738;48.324;14.230;2022-11-06T05:53:16;16.98;;;8.48;;
71867;SDS011;59738;48.324;14.230;2022-11-06T05:55:44;16.47;;;8.77;;
71867;SDS011;59738;48.324;14.230;2022-11-06T05:58:11;22.73;;;8.88;;
71867;SDS011;59738;48.324;14.230;2022-11-06T06:00:39;18.05;;;9.25;;
71867;SDS011;59738;48.324;14.230;2022-11-06T06:03:07;22.40;;;9.25;;
71867;SDS011;59738;48.324;14.230;2022-11-06T06:05:35;20.20;;;10.10;;
71867;SDS011;59738;48.324;14.230;2022-11-06T06:08:02;19.07;;;10.10;;
71867;SDS011;59738;48.324;14.230;2022-11-06T06:10:32;21.25;;;10.07;;
71867;SDS011;59738;48.324;14.230;2022-11-06T06:12:59;20.17;;;9.10;;
71867;SDS011;59738;48.324;14.230;2022-11-06T06:15:27;20.70;;;10.20;;
71867;SDS011;59738;48.324;14.230;2022-11-06T06:17:56;20.02;;;10.30;;
71867;SDS011;59738;48.324;14.230;2022-11-06T06:20:24;21.13;;;9.47;;
71867;SDS011;59738;48.324;14.230;2022-11-06T06:22:52;19.40;;;9.63;;
71867;SDS011;59738;48.324;14.230;2022-11-06T06:25:20;21.90;;;10.43;;
71867;SDS011;59738;48.324;14.230;2022-11-06T06:27:49;20.33;;;10.30;;
71867;SDS011;59738;48.324;14.230;2022-11-06T06:30:16;25.77;;;11.15;;
71867;SDS011;59738;48.324;14.230;2022-11-06T06:32:44;22.60;;;11.03;;
71867;SDS011;59738;48.324;14.230;2022-11-06T06:35:12;24.10;;;11.77;;
71867;SDS011;59738;48.324;14.230;2022-11-06T06:37:39;21.88;;;9.82;;
71867;SDS011;59738;48.324;14.230;2022-11-06T06:40:08;24.00;;;10.23;;
71867;SDS011;59738;48.324;14.230;2022-11-06T06:42:36;23.98;;;9.63;;
71867;SDS011;59738;48.324;14.230;2022-11-06T06:45:07;23.37;;;11.73;;
71867;SDS011;59738;48.324;14.230;2022-11-06T06:47:35;25.45;;;12.00;;
71867;SDS011;59738;48.324;14.230;2022-11-06T06:50:02;38.97;;;12.20;;
71867;SDS011;59738;48.324;14.230;2022-11-06T06:52:30;64.20;;;12.57;;
71867;SDS011;59738;48.324;14.230;2022-11-06T06:54:58;33.55;;;11.65;;
71867;SDS011;59738;48.324;14.230;2022-11-06T06:57:25;26.57;;;11.53;;
71867;SDS011;59738;48.324;14.230;2022-11-06T06:59:52;25.83;;;11.98;;
71867;SDS011;59738;48.324;14.230;2022-11-06T07:02:21;22.88;;;10.95;;
71867;SDS011;59738;48.324;14.230;2022-11-06T07:04:49;27.52;;;12.05;;
71867;SDS011;59738;48.324;14.230;2022-11-06T07:07:17;27.55;;;11.80;;
71867;SDS011;59738;48.324;14.230;2022-11-06T07:09:44;28.03;;;11.80;;
71867;SDS011;59738;48.324;14.230;2022-11-06T07:12:12;29.27;;;11.85;;
71867;SDS011;59738;48.324;14.230;2022-11-06T07:14:39;31.65;;;12.48;;
71867;SDS011;59738;48.324;14.230;2022-11-06T07:17:07;26.33;;;12.35;;
71867;SDS011;59738;48.324;14.230;2022-11-06T07:19:36;32.03;;;13.35;;
71867;SDS011;59738;48.324;14.230;2022-11-06T07:22:03;27.33;;;12.53;;
71867;SDS011;59738;48.324;14.230;2022-11-06T07:24:31;31.27;;;13.00;;
71867;SDS011;59738;48.324;14.230;2022-11-06T07:26:58;27.17;;;13.40;;
71867;SDS011;59738;48.324;14.230;2022-11-06T07:29:26;25.20;;;11.20;;
71867;SDS011;59738;48.324;14.230;2022-11-06T07:31:55;25.63;;;11.95;;
71867;SDS011;59738;48.324;14.230;2022-11-06T07:34:23;25.37;;;11.77;;
71867;SDS011;59738;48.324;14.230;2022-11-06T07:36:53;33.33;;;13.27;;
71867;SDS011;59738;48.324;14.230;2022-11-06T07:39:21;31.17;;;14.15;;
71867;SDS011;59738;48.324;14.230;2022-11-06T07:41:50;29.50;;;13.88;;
71867;SDS011;59738;48.324;14.230;2022-11-06T07:44:18;28.20;;;13.60;;
71867;SDS011;59738;48.324;14.230;2022-11-06T07:46:52;28.53;;;12.70;;
71867;SDS011;59738;48.324;14.230;2022-11-06T07:49:19;30.65;;;13.07;;
71867;SDS011;59738;48.324;14.230;2022-11-06T07:51:49;25.42;;;12.27;;
71867;SDS011;59738;48.324;14.230;2022-11-06T07:54:18;73.65;;;13.13;;
71867;SDS011;59738;48.324;14.230;2022-11-06T07:56:48;98.32;;;13.02;;
71867;SDS011;59738;48.324;14.230;2022-11-06T07:59:16;44.47;;;12.43;;
71867;SDS011;59738;48.324;14.230;2022-11-06T08:01:43;33.03;;;11.82;;
71867;SDS011;59738;48.324;14.230;2022-11-06T08:04:11;25.27;;;11.48;;
71867;SDS011;59738;48.324;14.230;2022-11-06T08:06:39;29.25;;;12.50;;
71867;SDS011;59738;48.324;14.230;2022-11-06T08:09:06;30.83;;;12.38;;
71867;SDS011;59738;48.324;14.230;2022-11-06T08:11:36;27.10;;;12.17;;
71867;SDS011;59738;48.324;14.230;2022-11-06T08:14:03;28.13;;;11.85;;
71867;SDS011;59738;48.324;14.230;2022-11-06T08:16:30;35.97;;;12.55;;
71867;SDS011;59738;48.324;14.230;2022-11-06T08:18:58;29.95;;;12.25;;
71867;SDS011;59738;48.324;14.230;2022-11-06T08:21:26;31.45;;;12.20;;
71867;SDS011;59738;48.324;14.230;2022-11-06T08:23:53;25.70;;;12.13;;
71867;SDS011;59738;48.324;14.230;2022-11-06T08:26:21;31.08;;;12.02;;
71867;SDS011;59738;48.324;14.230;2022-11-06T08:28:50;30.23;;;11.75;;
71867;SDS011;59738;48.324;14.230;2022-11-06T08:31:17;27.27;;;11.70;;
71867;SDS011;59738;48.324;14.230;2022-11-06T08:33:46;28.85;;;12.43;;
71867;SDS011;59738;48.324;14.230;2022-11-06T08:36:13;27.07;;;12.27;;
71867;SDS011;59738;48.324;14.230;2022-11-06T08:38:41;29.23;;;11.90;;
71867;SDS011;59738;48.324;14.230;2022-11-06T08:41:09;27.63;;;11.60;;
71867;SDS011;59738;48.324;14.230;2022-11-06T08:43:38;30.13;;;12.38;;
71867;SDS011;59738;48.324;14.230;2022-11-06T08:46:08;28.50;;;11.82;;
71867;SDS011;59738;48.324;14.230;2022-11-06T08:48:36;27.63;;;12.30;;
71867;SDS011;59738;48.324;14.230;2022-11-06T08:51:03;23.15;;;10.82;;
71867;SDS011;59738;48.324;14.230;2022-11-06T08:53:32;34.30;;;12.48;;
71867;SDS011;59738;48.324;14.230;2022-11-06T08:56:01;26.23;;;11.57;;
71867;SDS011;59738;48.324;14.230;2022-11-06T08:58:30;25.00;;;11.02;;
71867;SDS011;59738;48.324;14.230;2022-11-06T09:00:57;26.97;;;12.27;;
71867;SDS011;59738;48.324;14.230;2022-11-06T09:03:27;28.13;;;11.57;;
71867;SDS011;59738;48.324;14.230;2022-11-06T09:05:54;27.35;;;11.40;;
71867;SDS011;59738;48.324;14.230;2022-11-06T09:08:23;24.35;;;11.27;;
71867;SDS011;59738;48.324;14.230;2022-11-06T09:10:51;23.85;;;11.07;;
71867;SDS011;59738;48.324;14.230;2022-11-06T09:13:18;25.13;;;10.53;;
71867;SDS011;59738;48.324;14.230;2022-11-06T09:15:46;22.80;;;10.43;;
71867;SDS011;59738;48.324;14.230;2022-11-06T09:18:14;24.98;;;11.30;;
71867;SDS011;59738;48.324;14.230;2022-11-06T09:20:43;27.15;;;10.93;;
71867;SDS011;59738;48.324;14.230;2022-11-06T09:23:11;24.48;;;11.82;;
71867;SDS011;59738;48.324;14.230;2022-11-06T09:25:38;25.23;;;11.17;;
71867;SDS011;59738;48.324;14.230;2022-11-06T09:28:06;29.10;;;11.20;;
71867;SDS011;59738;48.324;14.230;2022-11-06T09:30:33;25.20;;;11.18;;
71867;SDS011;59738;48.324;14.230;2022-11-06T09:33:01;24.27;;;10.95;;
71867;SDS011;59738;48.324;14.230;2022-11-06T09:35:30;27.30;;;11.82;;
71867;SDS011;59738;48.324;14.230;2022-11-06T09:38:03;18.87;;;9.07;;
71867;SDS011;59738;48.324;14.230;2022-11-06T09:40:33;29.67;;;10.85;;
71867;SDS011;59738;48.324;14.230;2022-11-06T09:43:10;27.75;;;11.73;;
71867;SDS011;59738;48.324;14.230;2022-11-06T09:45:46;24.92;;;11.10;;
71867;SDS011;59738;48.324;14.230;2022-11-06T09:48:16;23.85;;;10.35;;
71867;SDS011;59738;48.324;14.230;2022-11-06T09:50:48;20.07;;;8.53;;
71867;SDS011;59738;48.324;14.230;2022-11-06T09:53:23;22.00;;;10.95;;
71867;SDS011;59738;48.324;14.230;2022-11-06T09:55:53;24.88;;;11.60;;
71867;SDS011;59738;48.324;14.230;2022-11-06T09:58:22;22.38;;;10.70;;
71867;SDS011;59738;48.324;14.230;2022-11-06T10:00:53;18.70;;;9.18;;
71867;SDS011;59738;48.324;14.230;2022-11-06T10:03:22;17.43;;;8.90;;
71867;SDS011;59738;48.324;14.230;2022-11-06T10:05:57;15.95;;;8.15;;
71867;SDS011;59738;48.324;14.230;2022-11-06T10:08:27;16.02;;;8.57;;
71867;SDS011;59738;48.324;14.230;2022-11-06T10:10:57;20.10;;;10.07;;
71867;SDS011;59738;48.324;14.230;2022-11-06T10:13:38;20.75;;;10.95;;
71867;SDS011;59738;48.324;14.230;2022-11-06T10:16:13;23.40;;;10.33;;
71867;SDS011;59738;48.324;14.230;2022-11-06T10:18:48;21.00;;;10.30;;
71867;SDS011;59738;48.324;14.230;2022-11-06T10:21:22;18.27;;;9.48;;
71867;SDS011;59738;48.324;14.230;2022-11-06T10:23:55;19.63;;;8.85;;
71867;SDS011;59738;48.324;14.230;2022-11-06T10:26:27;15.60;;;8.15;;
71867;SDS011;59738;48.324;14.230;2022-11-06T10:32:07;16.67;;;8.45;;
71867;SDS011;59738;48.324;14.230;2022-11-06T10:34:46;16.75;;;8.88;;
71867;SDS011;59738;48.324;14.230;2022-11-06T10:37:16;17.45;;;9.73;;
71867;SDS011;59738;48.324;14.230;2022-11-06T10:39:52;21.20;;;9.13;;
71867;SDS011;59738;48.324;14.230;2022-11-06T10:42:21;13.23;;;5.97;;
71867;SDS011;59738;48.324;14.230;2022-11-06T10:44:56;13.88;;;7.07;;
71867;SDS011;59738;48.324;14.230;2022-11-06T10:47:28;17.67;;;8.98;;
71867;SDS011;59738;48.324;14.230;2022-11-06T10:50:01;11.25;;;6.30;;
71867;SDS011;59738;48.324;14.230;2022-11-06T10:52:35;8.13;;;5.00;;
71867;SDS011;59738;48.324;14.230;2022-11-06T10:55:26;16.60;;;7.80;;
71867;SDS011;59738;48.324;14.230;2022-11-06T10:58:11;12.82;;;7.15;;
71867;SDS011;59738;48.324;14.230;2022-11-06T11:00:40;14.80;;;7.57;;
71867;SDS011;59738;48.324;14.230;2022-11-06T11:03:15;16.38;;;8.70;;
71867;SDS011;59738;48.324;14.230;2022-11-06T11:05:46;15.40;;;8.07;;
71867;SDS011;59738;48.324;14.230;2022-11-06T11:11:17;16.73;;;8.75;;
71867;SDS011;59738;48.324;14.230;2022-11-06T11:13:48;23.33;;;11.02;;
71867;SDS011;59738;48.324;14.230;2022-11-06T11:16:17;70.65;;;31.35;;
71867;SDS011;59738;48.324;14.230;2022-11-06T11:18:47;52.60;;;25.55;;
71867;SDS011;59738;48.324;14.230;2022-11-06T11:21:22;56.37;;;26.63;;
71867;SDS011;59738;48.324;14.230;2022-11-06T11:24:06;29.08;;;15.20;;
71867;SDS011;59738;48.324;14.230;2022-11-06T11:29:28;25.65;;;11.13;;
71867;SDS011;59738;48.324;14.230;2022-11-06T11:31:58;17.83;;;9.80;;
71867;SDS011;59738;48.324;14.230;2022-11-06T11:34:28;16.67;;;8.50;;
71867;SDS011;59738;48.324;14.230;2022-11-06T11:37:02;14.50;;;7.00;;
71867;SDS011;59738;48.324;14.230;2022-11-06T11:39:32;13.65;;;7.47;;
71867;SDS011;59738;48.324;14.230;2022-11-06T11:47:52;11.77;;;6.37;;
71867;SDS011;59738;48.324;14.230;2022-11-06T11:50:38;10.35;;;6.07;;
71867;SDS011;59738;48.324;14.230;2022-11-06T11:56:13;18.35;;;6.70;;
71867;SDS011;59738;48.324;14.230;2022-11-06T11:58:48;9.38;;;5.70;;
71867;SDS011;59738;48.324;14.230;2022-11-06T12:01:17;7.97;;;4.70;;
71867;SDS011;59738;48.324;14.230;2022-11-06T12:03:47;8.73;;;5.13;;
71867;SDS011;59738;48.324;14.230;2022-11-06T12:06:17;9.23;;;5.38;;
71867;SDS011;59738;48.324;14.230;2022-11-06T12:08:46;8.40;;;4.90;;
71867;SDS011;59738;48.324;14.230;2022-11-06T12:11:18;8.48;;;5.53;;
71867;SDS011;59738;48.324;14.230;2022-11-06T12:17:04;9.90;;;5.20;;
71867;SDS011;59738;48.324;14.230;2022-11-06T12:19:38;10.18;;;5.47;;
71867;SDS011;59738;48.324;14.230;2022-11-06T12:22:09;10.23;;;5.47;;
71867;SDS011;59738;48.324;14.230;2022-11-06T12:24:40;9.15;;;5.53;;
71867;SDS011;59738;48.324;14.230;2022-11-06T12:27:14;8.07;;;4.80;;
71867;SDS011;59738;48.324;14.230;2022-11-06T12:29:46;9.00;;;5.20;;
71867;SDS011;59738;48.324;14.230;2022-11-06T12:32:21;9.95;;;5.70;;
71867;SDS011;59738;48.324;14.230;2022-11-06T12:34:54;10.32;;;6.13;;
71867;SDS011;59738;48.324;14.230;2022-11-06T12:37:34;8.45;;;5.45;;
71867;SDS011;59738;48.324;14.230;2022-11-06T12:40:11;8.37;;;4.80;;
71867;SDS011;59738;48.324;14.230;2022-11-06T12:42:45;9.02;;;5.32;;
71867;SDS011;59738;48.324;14.230;2022-11-06T12:45:19;7.25;;;4.70;;
71867;SDS011;59738;48.324;14.230;2022-11-06T12:47:58;9.32;;;4.80;;
71867;SDS011;59738;48.324;14.230;2022-11-06T12:50:33;9.40;;;5.68;;
71867;SDS011;59738;48.324;14.230;2022-11-06T12:53:13;9.30;;;5.23;;
71867;SDS011;59738;48.324;14.230;2022-11-06T12:55:48;8.05;;;5.00;;
71867;SDS011;59738;48.324;14.230;2022-11-06T12:58:25;9.43;;;4.55;;
71867;SDS011;59738;48.324;14.230;2022-11-06T13:01:02;6.72;;;4.13;;
71867;SDS011;59738;48.324;14.230;2022-11-06T13:03:42;9.45;;;4.53;;
71867;SDS011;59738;48.324;14.230;2022-11-06T13:06:20;6.20;;;4.00;;
71867;SDS011;59738;48.324;14.230;2022-11-06T13:08:53;6.88;;;4.63;;
71867;SDS011;59738;48.324;14.230;2022-11-06T13:11:27;6.85;;;4.20;;
71867;SDS011;59738;48.324;14.230;2022-11-06T13:14:03;7.07;;;4.50;;
71867;SDS011;59738;48.324;14.230;2022-11-06T13:16:37;6.32;;;3.83;;
71867;SDS011;59738;48.324;14.230;2022-11-06T13:19:18;5.20;;;3.50;;
71867;SDS011;59738;48.324;14.230;2022-11-06T13:22:00;7.72;;;4.35;;
71867;SDS011;59738;48.324;14.230;2022-11-06T13:24:44;5.35;;;3.88;;
71867;SDS011;59738;48.324;14.230;2022-11-06T13:27:16;6.63;;;4.18;;
71867;SDS011;59738;48.324;14.230;2022-11-06T13:29:48;7.60;;;3.83;;
71867;SDS011;59738;48.324;14.230;2022-11-06T13:32:18;6.10;;;4.20;;
71867;SDS011;59738;48.324;14.230;2022-11-06T13:34:48;8.20;;;4.00;;
71867;SDS011;59738;48.324;14.230;2022-11-06T13:37:17;5.28;;;3.03;;
71867;SDS011;59738;48.324;14.230;2022-11-06T13:39:47;6.13;;;3.35;;
71867;SDS011;59738;48.324;14.230;2022-11-06T13:42:19;6.10;;;3.53;;
71867;SDS011;59738;48.324;14.230;2022-11-06T13:44:48;5.97;;;3.30;;
71867;SDS011;59738;48.324;14.230;2022-11-06T13:47:16;6.30;;;3.63;;
71867;SDS011;59738;48.324;14.230;2022-11-06T13:49:49;4.63;;;3.33;;
71867;SDS011;59738;48.324;14.230;2022-11-06T13:52:19;6.35;;;3.83;;
71867;SDS011;59738;48.324;14.230;2022-11-06T13:54:56;6.32;;;4.05;;
71867;SDS011;59738;48.324;14.230;2022-11-06T14:00:35;8.55;;;4.28;;
71867;SDS011;59738;48.324;14.230;2022-11-06T14:03:19;8.23;;;3.78;;
71867;SDS011;59738;48.324;14.230;2022-11-06T14:06:05;6.57;;;3.75;;
71867;SDS011;59738;48.324;14.230;2022-11-06T14:08:38;7.45;;;4.32;;
71867;SDS011;59738;48.324;14.230;2022-11-06T14:11:10;6.97;;;3.60;;
71867;SDS011;59738;48.324;14.230;2022-11-06T14:13:38;7.55;;;3.50;;
71867;SDS011;59738;48.324;14.230;2022-11-06T14:18:56;5.18;;;3.20;;
71867;SDS011;59738;48.324;14.230;2022-11-06T14:21:42;4.65;;;3.38;;
71867;SDS011;59738;48.324;14.230;2022-11-06T14:24:15;6.83;;;3.10;;
71867;SDS011;59738;48.324;14.230;2022-11-06T14:26:53;5.22;;;3.25;;
71867;SDS011;59738;48.324;14.230;2022-11-06T14:29:52;3.85;;;2.90;;
71867;SDS011;59738;48.324;14.230;2022-11-06T14:38:36;3.87;;;2.50;;
71867;SDS011;59738;48.324;14.230;2022-11-06T14:44:19;3.67;;;2.30;;
71867;SDS011;59738;48.324;14.230;2022-11-06T14:46:51;6.63;;;2.40;;
71867;SDS011;59738;48.324;14.230;2022-11-06T14:49:24;4.28;;;2.90;;
71867;SDS011;59738;48.324;14.230;2022-11-06T14:51:59;3.53;;;2.47;;
71867;SDS011;59738;48.324;14.230;2022-11-06T14:54:30;2.83;;;2.35;;
71867;SDS011;59738;48.324;14.230;2022-11-06T14:57:00;4.28;;;2.42;;
71867;SDS011;59738;48.324;14.230;2022-11-06T14:59:30;4.57;;;2.60;;
71867;SDS011;59738;48.324;14.230;2022-11-06T15:02:01;3.47;;;2.60;;
71867;SDS011;59738;48.324;14.230;2022-11-06T15:04:31;3.70;;;3.10;;
71867;SDS011;59738;48.324;14.230;2022-11-06T15:07:07;4.85;;;2.47;;
71867;SDS011;59738;48.324;14.230;2022-11-06T15:09:44;4.38;;;2.53;;
71867;SDS011;59738;48.324;14.230;2022-11-06T15:12:12;3.97;;;2.58;;
71867;SDS011;59738;48.324;14.230;2022-11-06T15:14:56;4.53;;;2.53;;
71867;SDS011;59738;48.324;14.230;2022-11-06T15:17:26;3.07;;;2.50;;
71867;SDS011;59738;48.324;14.230;2022-11-06T15:19:57;2.97;;;2.30;;
71867;SDS011;59738;48.324;14.230;2022-11-06T15:22:32;4.40;;;2.50;;